CheckWX is a tool to help pilots better visualize weather data.  It is not intended as a substitute for an official pre-flight weather briefing.

05:55:36 UTC

KBUF METAR
Buffalo Niagara International Airport
Buffalo, New York, USA
Current

1 hour ago

KBUF 200454Z 14004KT 10SM FEW170 BKN300 M10/M14 A3053 RMK AO2 SLP354 T11001139 410561156
Observed
Feb-20 @ 04:54 UTC
Wind
  • 140° at 4 KTS
Visibility
16,093 meters
Flight Rules
VFR
Cloud Levels
  • Few at 17,000' AGL
  • Broken at 30,000' AGL
Temperature
-10°C / 14°F
Dewpoint
-14°C / 7°F
Humidity
73%
Altimeter
30.53" Hg
Pressure
1035.4 hPa
Previous

2 hours ago

KBUF 200354Z 15004KT 10SM SCT300 M09/M13 A3054 RMK AO2 SLP358 T10941133
Observed
Feb-20 @ 03:54 UTC
Wind
  • 150° at 4 KTS
Visibility
16,093 meters
Flight Rules
VFR
Cloud Levels
  • Scattered at 30,000' AGL
Temperature
-9°C / 16°F
Dewpoint
-13°C / 9°F
Humidity
73%
Altimeter
30.54" Hg
Pressure
1035.8 hPa
Previous

3 hours ago

KBUF 200254Z 18005KT 10SM SCT300 M10/M13 A3055 RMK AO2 SLP362 T11001133 57016
Observed
Feb-20 @ 02:54 UTC
Wind
  • 180° at 5 KTS
Visibility
16,093 meters
Flight Rules
VFR
Cloud Levels
  • Scattered at 30,000' AGL
Temperature
-10°C / 14°F
Dewpoint
-13°C / 9°F
Humidity
79%
Altimeter
30.55" Hg
Pressure
1036.2 hPa